sensor_id;sensor_type;location;lat;lon;timestamp;temperature;humidity
54796;DHT22;40693;43.884;20.340;2022-07-29T00:02:26;614.50;2252.80
54796;DHT22;40693;43.884;20.340;2022-07-29T00:04:52;614.50;2252.80
54796;DHT22;40693;43.884;20.340;2022-07-29T00:07:17;614.60;2252.80
54796;DHT22;40693;43.884;20.340;2022-07-29T00:09:43;614.60;2252.80
54796;DHT22;40693;43.884;20.340;2022-07-29T00:12:09;614.60;2252.80
54796;DHT22;40693;43.884;20.340;2022-07-29T00:14:35;614.50;2278.40
54796;DHT22;40693;43.884;20.340;2022-07-29T00:17:01;614.50;2278.40
54796;DHT22;40693;43.884;20.340;2022-07-29T00:19:26;614.50;2304.00
54796;DHT22;40693;43.884;20.340;2022-07-29T00:21:52;614.50;2304.00
54796;DHT22;40693;43.884;20.340;2022-07-29T00:24:18;614.40;2329.60
54796;DHT22;40693;43.884;20.340;2022-07-29T00:26:44;614.50;2329.60
54796;DHT22;40693;43.884;20.340;2022-07-29T00:29:09;614.50;2355.20
54796;DHT22;40693;43.884;20.340;2022-07-29T00:31:35;614.40;2355.20
54796;DHT22;40693;43.884;20.340;2022-07-29T00:34:02;614.60;2380.80
54796;DHT22;40693;43.884;20.340;2022-07-29T00:36:28;589.70;2380.80
54796;DHT22;40693;43.884;20.340;2022-07-29T00:38:54;589.70;2406.40
54796;DHT22;40693;43.884;20.340;2022-07-29T00:41:20;589.70;2406.40
54796;DHT22;40693;43.884;20.340;2022-07-29T00:43:46;614.40;2432.00
54796;DHT22;40693;43.884;20.340;2022-07-29T00:46:12;589.60;2432.00
54796;DHT22;40693;43.884;20.340;2022-07-29T00:48:38;589.70;2432.00
54796;DHT22;40693;43.884;20.340;2022-07-29T00:51:05;589.60;2432.00
54796;DHT22;40693;43.884;20.340;2022-07-29T00:53:31;589.60;2432.00
54796;DHT22;40693;43.884;20.340;2022-07-29T00:55:58;589.60;2432.00
54796;DHT22;40693;43.884;20.340;2022-07-29T00:58:24;589.60;2432.00
54796;DHT22;40693;43.884;20.340;2022-07-29T01:00:51;589.60;2432.00
54796;DHT22;40693;43.884;20.340;2022-07-29T01:03:18;589.60;2432.00
54796;DHT22;40693;43.884;20.340;2022-07-29T01:05:45;589.60;2432.00
54796;DHT22;40693;43.884;20.340;2022-07-29T01:08:12;589.50;2432.00
54796;DHT22;40693;43.884;20.340;2022-07-29T01:10:39;589.50;2432.00
54796;DHT22;40693;43.884;20.340;2022-07-29T01:13:07;589.60;2432.00
54796;DHT22;40693;43.884;20.340;2022-07-29T01:15:36;589.50;2432.00
54796;DHT22;40693;43.884;20.340;2022-07-29T01:18:21;589.50;2432.00
54796;DHT22;40693;43.884;20.340;2022-07-29T01:21:24;589.50;2432.00
54796;DHT22;40693;43.884;20.340;2022-07-29T01:34:25;589.20;2432.00
54796;DHT22;40693;43.884;20.340;2022-07-29T01:37:08;589.10;2432.00
54796;DHT22;40693;43.884;20.340;2022-07-29T01:39:38;589.00;2432.00
54796;DHT22;40693;43.884;20.340;2022-07-29T01:42:35;589.00;2432.00
54796;DHT22;40693;43.884;20.340;2022-07-29T01:47:36;588.90;2432.00
54796;DHT22;40693;43.884;20.340;2022-07-29T01:50:08;589.00;2432.00
54796;DHT22;40693;43.884;20.340;2022-07-29T01:55:13;589.10;2432.00
54796;DHT22;40693;43.884;20.340;2022-07-29T01:57:40;589.10;2432.00
54796;DHT22;40693;43.884;20.340;2022-07-29T02:00:08;589.10;2432.00
54796;DHT22;40693;43.884;20.340;2022-07-29T02:02:35;589.00;2432.00
54796;DHT22;40693;43.884;20.340;2022-07-29T02:05:03;589.10;2432.00
54796;DHT22;40693;43.884;20.340;2022-07-29T02:07:33;589.10;2432.00
54796;DHT22;40693;43.884;20.340;2022-07-29T02:10:00;589.10;2432.00
54796;DHT22;40693;43.884;20.340;2022-07-29T02:12:28;589.10;2432.00
54796;DHT22;40693;43.884;20.340;2022-07-29T02:14:56;589.10;2432.00
54796;DHT22;40693;43.884;20.340;2022-07-29T02:17:27;589.10;2432.00
54796;DHT22;40693;43.884;20.340;2022-07-29T02:20:00;589.10;2432.00
54796;DHT22;40693;43.884;20.340;2022-07-29T02:22:29;589.00;2432.00
54796;DHT22;40693;43.884;20.340;2022-07-29T02:24:56;589.00;2432.00
54796;DHT22;40693;43.884;20.340;2022-07-29T02:27:23;589.00;2432.00
54796;DHT22;40693;43.884;20.340;2022-07-29T02:29:51;588.80;2432.00
54796;DHT22;40693;43.884;20.340;2022-07-29T02:32:19;588.90;2432.00
54796;DHT22;40693;43.884;20.340;2022-07-29T02:34:47;588.90;2432.00
54796;DHT22;40693;43.884;20.340;2022-07-29T02:37:16;588.80;2432.00
54796;DHT22;40693;43.884;20.340;2022-07-29T02:39:44;564.00;2432.00
54796;DHT22;40693;43.884;20.340;2022-07-29T02:42:13;588.80;2432.00
54796;DHT22;40693;43.884;20.340;2022-07-29T02:44:40;588.80;2432.00
54796;DHT22;40693;43.884;20.340;2022-07-29T02:47:30;588.80;2432.00
54796;DHT22;40693;43.884;20.340;2022-07-29T02:52:59;588.80;2432.00
54796;DHT22;40693;43.884;20.340;2022-07-29T02:55:30;588.80;2432.00
54796;DHT22;40693;43.884;20.340;2022-07-29T02:58:21;588.80;2432.00
54796;DHT22;40693;43.884;20.340;2022-07-29T03:00:52;588.80;2432.00
54796;DHT22;40693;43.884;20.340;2022-07-29T03:03:19;588.80;2432.00
54796;DHT22;40693;43.884;20.340;2022-07-29T03:05:45;588.80;2432.00
54796;DHT22;40693;43.884;20.340;2022-07-29T03:08:12;588.80;2432.00
54796;DHT22;40693;43.884;20.340;2022-07-29T03:10:43;589.00;2432.00
54796;DHT22;40693;43.884;20.340;2022-07-29T03:13:11;564.10;2432.00
54796;DHT22;40693;43.884;20.340;2022-07-29T03:15:38;564.10;2432.00
54796;DHT22;40693;43.884;20.340;2022-07-29T03:18:06;563.80;2432.00
54796;DHT22;40693;43.884;20.340;2022-07-29T03:20:32;563.70;2432.00
54796;DHT22;40693;43.884;20.340;2022-07-29T03:22:58;563.60;2432.00
54796;DHT22;40693;43.884;20.340;2022-07-29T03:25:23;563.50;2432.00
54796;DHT22;40693;43.884;20.340;2022-07-29T03:27:49;563.30;2432.00
54796;DHT22;40693;43.884;20.340;2022-07-29T03:30:15;563.20;2432.00
54796;DHT22;40693;43.884;20.340;2022-07-29T03:32:41;538.40;2406.40
54796;DHT22;40693;43.884;20.340;2022-07-29T03:35:07;538.30;2406.40
54796;DHT22;40693;43.884;20.340;2022-07-29T03:37:34;538.30;2406.40
54796;DHT22;40693;43.884;20.340;2022-07-29T03:40:03;538.10;2406.40
54796;DHT22;40693;43.884;20.340;2022-07-29T03:42:36;538.10;2406.40
54796;DHT22;40693;43.884;20.340;2022-07-29T03:45:06;538.00;2406.40
54796;DHT22;40693;43.884;20.340;2022-07-29T03:47:35;538.00;2406.40
54796;DHT22;40693;43.884;20.340;2022-07-29T03:50:06;538.00;2406.40
54796;DHT22;40693;43.884;20.340;2022-07-29T03:52:33;537.90;2406.40
54796;DHT22;40693;43.884;20.340;2022-07-29T03:54:59;537.90;2406.40
54796;DHT22;40693;43.884;20.340;2022-07-29T03:57:27;538.00;2406.40
54796;DHT22;40693;43.884;20.340;2022-07-29T03:59:54;538.00;2406.40
54796;DHT22;40693;43.884;20.340;2022-07-29T04:02:20;537.90;2406.40
54796;DHT22;40693;43.884;20.340;2022-07-29T04:04:47;538.00;2406.40
54796;DHT22;40693;43.884;20.340;2022-07-29T04:07:13;537.90;2406.40
54796;DHT22;40693;43.884;20.340;2022-07-29T04:09:39;537.80;2406.40
54796;DHT22;40693;43.884;20.340;2022-07-29T04:12:05;537.70;2406.40
54796;DHT22;40693;43.884;20.340;2022-07-29T04:14:32;537.60;2406.40
54796;DHT22;40693;43.884;20.340;2022-07-29T04:16:59;537.70;2406.40
54796;DHT22;40693;43.884;20.340;2022-07-29T04:19:25;537.60;2406.40
54796;DHT22;40693;43.884;20.340;2022-07-29T04:21:51;537.60;2406.40
54796;DHT22;40693;43.884;20.340;2022-07-29T04:24:17;537.70;2406.40
54796;DHT22;40693;43.884;20.340;2022-07-29T04:26:43;537.80;2406.40
54796;DHT22;40693;43.884;20.340;2022-07-29T04:29:10;538.00;2406.40
54796;DHT22;40693;43.884;20.340;2022-07-29T04:31:37;538.00;2406.40
54796;DHT22;40693;43.884;20.340;2022-07-29T04:34:03;538.10;2406.40
54796;DHT22;40693;43.884;20.340;2022-07-29T04:36:29;538.20;2406.40
54796;DHT22;40693;43.884;20.340;2022-07-29T04:38:55;538.40;2406.40
54796;DHT22;40693;43.884;20.340;2022-07-29T04:41:23;538.40;2406.40
54796;DHT22;40693;43.884;20.340;2022-07-29T04:43:49;538.50;2406.40
54796;DHT22;40693;43.884;20.340;2022-07-29T04:46:15;563.20;2432.00
54796;DHT22;40693;43.884;20.340;2022-07-29T04:48:41;563.30;2432.00
54796;DHT22;40693;43.884;20.340;2022-07-29T04:51:06;563.40;2432.00
54796;DHT22;40693;43.884;20.340;2022-07-29T04:53:32;563.60;2432.00
54796;DHT22;40693;43.884;20.340;2022-07-29T04:55:58;563.60;2432.00
54796;DHT22;40693;43.884;20.340;2022-07-29T04:58:24;563.60;2432.00
54796;DHT22;40693;43.884;20.340;2022-07-29T05:00:50;563.70;2432.00
54796;DHT22;40693;43.884;20.340;2022-07-29T05:03:16;563.70;2432.00
54796;DHT22;40693;43.884;20.340;2022-07-29T05:05:42;563.90;2432.00
54796;DHT22;40693;43.884;20.340;2022-07-29T05:08:08;564.00;2432.00
54796;DHT22;40693;43.884;20.340;2022-07-29T05:10:34;564.00;2432.00
54796;DHT22;40693;43.884;20.340;2022-07-29T05:13:04;564.10;2432.00
54796;DHT22;40693;43.884;20.340;2022-07-29T05:15:31;564.10;2432.00
54796;DHT22;40693;43.884;20.340;2022-07-29T05:17:57;564.10;2432.00
54796;DHT22;40693;43.884;20.340;2022-07-29T05:20:23;588.80;2432.00
54796;DHT22;40693;43.884;20.340;2022-07-29T05:22:57;588.90;2432.00
54796;DHT22;40693;43.884;20.340;2022-07-29T05:25:23;589.00;2432.00
54796;DHT22;40693;43.884;20.340;2022-07-29T05:27:49;589.00;2432.00
54796;DHT22;40693;43.884;20.340;2022-07-29T05:30:15;589.10;2432.00
54796;DHT22;40693;43.884;20.340;2022-07-29T05:32:41;589.20;2432.00
54796;DHT22;40693;43.884;20.340;2022-07-29T05:35:07;589.20;2432.00
54796;DHT22;40693;43.884;20.340;2022-07-29T05:37:33;589.20;2432.00
54796;DHT22;40693;43.884;20.340;2022-07-29T05:39:59;589.30;2432.00
54796;DHT22;40693;43.884;20.340;2022-07-29T05:42:25;589.20;2432.00
54796;DHT22;40693;43.884;20.340;2022-07-29T05:44:51;589.20;2432.00
54796;DHT22;40693;43.884;20.340;2022-07-29T05:47:17;589.50;2432.00
54796;DHT22;40693;43.884;20.340;2022-07-29T05:49:43;589.20;2432.00
54796;DHT22;40693;43.884;20.340;2022-07-29T05:52:09;589.10;2432.00
54796;DHT22;40693;43.884;20.340;2022-07-29T05:54:35;589.10;2432.00
54796;DHT22;40693;43.884;20.340;2022-07-29T05:57:02;589.10;2432.00
54796;DHT22;40693;43.884;20.340;2022-07-29T05:59:28;589.20;2432.00
54796;DHT22;40693;43.884;20.340;2022-07-29T06:01:54;589.20;2432.00
54796;DHT22;40693;43.884;20.340;2022-07-29T06:04:20;589.20;2432.00
54796;DHT22;40693;43.884;20.340;2022-07-29T06:06:46;589.30;2432.00
54796;DHT22;40693;43.884;20.340;2022-07-29T06:09:11;589.40;2432.00
54796;DHT22;40693;43.884;20.340;2022-07-29T06:11:37;589.50;2432.00
54796;DHT22;40693;43.884;20.340;2022-07-29T06:14:03;589.70;2432.00
54796;DHT22;40693;43.884;20.340;2022-07-29T06:16:29;614.40;2432.00
54796;DHT22;40693;43.884;20.340;2022-07-29T06:18:55;614.50;2432.00
54796;DHT22;40693;43.884;20.340;2022-07-29T06:21:20;614.60;2432.00
54796;DHT22;40693;43.884;20.340;2022-07-29T06:23:46;614.70;2432.00
54796;DHT22;40693;43.884;20.340;2022-07-29T06:26:12;614.80;2432.00
54796;DHT22;40693;43.884;20.340;2022-07-29T06:28:38;614.90;2432.00
54796;DHT22;40693;43.884;20.340;2022-07-29T06:31:05;615.00;2432.00
54796;DHT22;40693;43.884;20.340;2022-07-29T06:33:31;615.00;2432.00
54796;DHT22;40693;43.884;20.340;2022-07-29T06:35:56;615.10;2432.00
54796;DHT22;40693;43.884;20.340;2022-07-29T06:38:22;615.30;2432.00
54796;DHT22;40693;43.884;20.340;2022-07-29T06:40:48;615.30;2432.00
54796;DHT22;40693;43.884;20.340;2022-07-29T06:43:30;615.30;2432.00
54796;DHT22;40693;43.884;20.340;2022-07-29T06:46:07;640.00;2432.00
54796;DHT22;40693;43.884;20.340;2022-07-29T06:48:34;640.00;2432.00
54796;DHT22;40693;43.884;20.340;2022-07-29T06:51:02;640.20;2432.00
54796;DHT22;40693;43.884;20.340;2022-07-29T06:53:28;640.30;2432.00
54796;DHT22;40693;43.884;20.340;2022-07-29T06:55:54;640.30;2432.00
54796;DHT22;40693;43.884;20.340;2022-07-29T06:58:20;640.40;2432.00
54796;DHT22;40693;43.884;20.340;2022-07-29T07:00:49;640.40;2380.80
54796;DHT22;40693;43.884;20.340;2022-07-29T07:03:16;640.60;2380.80
54796;DHT22;40693;43.884;20.340;2022-07-29T07:05:46;640.60;2355.20
54796;DHT22;40693;43.884;20.340;2022-07-29T07:08:12;640.80;2329.60
54796;DHT22;40693;43.884;20.340;2022-07-29T07:10:39;640.90;2355.20
54796;DHT22;40693;43.884;20.340;2022-07-29T07:13:05;665.80;2355.20
54796;DHT22;40693;43.884;20.340;2022-07-29T07:15:31;665.70;2304.00
54796;DHT22;40693;43.884;20.340;2022-07-29T07:17:57;665.80;2329.60
54796;DHT22;40693;43.884;20.340;2022-07-29T07:20:24;666.00;2304.00
54796;DHT22;40693;43.884;20.340;2022-07-29T07:22:50;666.10;2252.80
54796;DHT22;40693;43.884;20.340;2022-07-29T07:25:16;666.20;2227.20
54796;DHT22;40693;43.884;20.340;2022-07-29T07:27:43;666.30;2252.80
54796;DHT22;40693;43.884;20.340;2022-07-29T07:30:09;666.40;2176.00
54796;DHT22;40693;43.884;20.340;2022-07-29T07:32:36;666.50;2150.40
54796;DHT22;40693;43.884;20.340;2022-07-29T07:35:05;666.50;2150.40
54796;DHT22;40693;43.884;20.340;2022-07-29T07:37:32;691.30;2150.40
54796;DHT22;40693;43.884;20.340;2022-07-29T07:39:58;691.40;2124.80
54796;DHT22;40693;43.884;20.340;2022-07-29T07:42:24;691.60;2176.00
54796;DHT22;40693;43.884;20.340;2022-07-29T07:44:49;691.70;2150.40
54796;DHT22;40693;43.884;20.340;2022-07-29T07:47:16;691.80;2124.80
54796;DHT22;40693;43.884;20.340;2022-07-29T07:49:50;691.80;2073.60
54796;DHT22;40693;43.884;20.340;2022-07-29T07:52:17;692.00;2099.20
54796;DHT22;40693;43.884;20.340;2022-07-29T07:54:43;692.10;2022.40
54796;DHT22;40693;43.884;20.340;2022-07-29T07:57:11;716.80;2022.40
54796;DHT22;40693;43.884;20.340;2022-07-29T07:59:37;716.90;2048.00
54796;DHT22;40693;43.884;20.340;2022-07-29T08:02:02;717.00;1996.80
54796;DHT22;40693;43.884;20.340;2022-07-29T08:04:28;717.20;1971.20
54796;DHT22;40693;43.884;20.340;2022-07-29T08:06:54;717.30;1996.80
54796;DHT22;40693;43.884;20.340;2022-07-29T08:09:21;717.40;2022.40
54796;DHT22;40693;43.884;20.340;2022-07-29T08:11:46;717.60;1996.80
54796;DHT22;40693;43.884;20.340;2022-07-29T08:14:12;717.70;1971.20
54796;DHT22;40693;43.884;20.340;2022-07-29T08:16:42;717.70;1894.40
54796;DHT22;40693;43.884;20.340;2022-07-29T08:19:08;742.50;1894.40
54796;DHT22;40693;43.884;20.340;2022-07-29T08:21:35;742.60;1868.80
54796;DHT22;40693;43.884;20.340;2022-07-29T08:24:00;742.60;1868.80
54796;DHT22;40693;43.884;20.340;2022-07-29T08:26:44;742.70;1843.20
54796;DHT22;40693;43.884;20.340;2022-07-29T08:29:10;742.80;1843.20
54796;DHT22;40693;43.884;20.340;2022-07-29T08:31:37;742.90;1843.20
54796;DHT22;40693;43.884;20.340;2022-07-29T08:34:04;743.10;1868.80
54796;DHT22;40693;43.884;20.340;2022-07-29T08:36:30;743.20;1843.20
54796;DHT22;40693;43.884;20.340;2022-07-29T08:38:57;743.30;1817.60
54796;DHT22;40693;43.884;20.340;2022-07-29T08:41:23;768.00;1843.20
54796;DHT22;40693;43.884;20.340;2022-07-29T08:43:50;768.10;1766.40
54796;DHT22;40693;43.884;20.340;2022-07-29T08:46:17;768.20;1766.40
54796;DHT22;40693;43.884;20.340;2022-07-29T08:48:43;768.20;1740.80
54796;DHT22;40693;43.884;20.340;2022-07-29T08:51:16;768.30;1740.80
54796;DHT22;40693;43.884;20.340;2022-07-29T08:53:44;768.40;1689.60
54796;DHT22;40693;43.884;20.340;2022-07-29T08:56:14;768.50;1689.60
54796;DHT22;40693;43.884;20.340;2022-07-29T08:58:42;768.60;1689.60
54796;DHT22;40693;43.884;20.340;2022-07-29T09:01:09;768.60;1664.00
54796;DHT22;40693;43.884;20.340;2022-07-29T09:03:37;768.70;1664.00
54796;DHT22;40693;43.884;20.340;2022-07-29T09:06:04;768.90;1689.60
54796;DHT22;40693;43.884;20.340;2022-07-29T09:08:33;793.70;1664.00
54796;DHT22;40693;43.884;20.340;2022-07-29T09:11:01;793.70;1612.80
54796;DHT22;40693;43.884;20.340;2022-07-29T09:13:27;793.70;1587.20
54796;DHT22;40693;43.884;20.340;2022-07-29T09:15:53;793.80;1587.20
54796;DHT22;40693;43.884;20.340;2022-07-29T09:21:00;794.00;1561.60
54796;DHT22;40693;43.884;20.340;2022-07-29T09:24:13;794.00;1561.60
54796;DHT22;40693;43.884;20.340;2022-07-29T09:26:44;794.10;1536.00
54796;DHT22;40693;43.884;20.340;2022-07-29T09:29:18;794.10;1536.00
54796;DHT22;40693;43.884;20.340;2022-07-29T09:31:53;794.20;1561.60
54796;DHT22;40693;43.884;20.340;2022-07-29T09:34:29;794.40;1536.00
54796;DHT22;40693;43.884;20.340;2022-07-29T09:36:56;794.50;1612.80
54796;DHT22;40693;43.884;20.340;2022-07-29T09:39:39;819.30;1510.40
54796;DHT22;40693;43.884;20.340;2022-07-29T09:42:11;819.50;1459.20
54796;DHT22;40693;43.884;20.340;2022-07-29T09:44:47;819.60;1484.80
54796;DHT22;40693;43.884;20.340;2022-07-29T09:47:15;819.80;1484.80
54796;DHT22;40693;43.884;20.340;2022-07-29T09:49:54;820.00;1433.60
54796;DHT22;40693;43.884;20.340;2022-07-29T09:52:23;820.10;1382.40
54796;DHT22;40693;43.884;20.340;2022-07-29T09:54:50;844.80;1459.20
54796;DHT22;40693;43.884;20.340;2022-07-29T09:57:26;845.10;1459.20
54796;DHT22;40693;43.884;20.340;2022-07-29T10:00:01;845.20;1408.00
54796;DHT22;40693;43.884;20.340;2022-07-29T10:02:31;845.30;1408.00
54796;DHT22;40693;43.884;20.340;2022-07-29T10:04:58;845.40;1382.40
54796;DHT22;40693;43.884;20.340;2022-07-29T10:07:25;845.40;1382.40
54796;DHT22;40693;43.884;20.340;2022-07-29T10:09:56;845.30;1356.80
54796;DHT22;40693;43.884;20.340;2022-07-29T10:12:22;845.30;1382.40
54796;DHT22;40693;43.884;20.340;2022-07-29T10:14:49;845.40;1382.40
54796;DHT22;40693;43.884;20.340;2022-07-29T10:17:15;845.70;1382.40
54796;DHT22;40693;43.884;20.340;2022-07-29T10:19:42;845.70;1382.40
54796;DHT22;40693;43.884;20.340;2022-07-29T10:22:09;870.50;1408.00
54796;DHT22;40693;43.884;20.340;2022-07-29T10:24:36;870.60;1408.00
54796;DHT22;40693;43.884;20.340;2022-07-29T10:27:05;870.70;1408.00
54796;DHT22;40693;43.884;20.340;2022-07-29T10:29:31;870.90;1382.40
54796;DHT22;40693;43.884;20.340;2022-07-29T10:37:20;871.00;1408.00
54796;DHT22;40693;43.884;20.340;2022-07-29T10:42:28;896.00;1356.80
54796;DHT22;40693;43.884;20.340;2022-07-29T10:44:55;896.20;1382.40
54796;DHT22;40693;43.884;20.340;2022-07-29T10:47:25;896.20;1408.00
54796;DHT22;40693;43.884;20.340;2022-07-29T10:50:02;896.30;1305.60
54796;DHT22;40693;43.884;20.340;2022-07-29T10:55:37;896.40;1280.00
54796;DHT22;40693;43.884;20.340;2022-07-29T10:58:16;896.60;1305.60
54796;DHT22;40693;43.884;20.340;2022-07-29T11:00:43;896.70;1305.60
54796;DHT22;40693;43.884;20.340;2022-07-29T11:03:09;896.90;1305.60
54796;DHT22;40693;43.884;20.340;2022-07-29T11:05:55;921.60;1305.60
54796;DHT22;40693;43.884;20.340;2022-07-29T11:08:22;921.70;1305.60
54796;DHT22;40693;43.884;20.340;2022-07-29T11:10:50;922.00;1331.20
54796;DHT22;40693;43.884;20.340;2022-07-29T11:16:12;922.20;1331.20
54796;DHT22;40693;43.884;20.340;2022-07-29T11:19:19;922.30;1331.20
54796;DHT22;40693;43.884;20.340;2022-07-29T11:21:45;922.50;1331.20
54796;DHT22;40693;43.884;20.340;2022-07-29T11:24:21;947.20;1254.40
54796;DHT22;40693;43.884;20.340;2022-07-29T11:29:56;947.20;1228.80
54796;DHT22;40693;43.884;20.340;2022-07-29T11:32:24;947.20;1228.80
54796;DHT22;40693;43.884;20.340;2022-07-29T11:35:27;947.30;1280.00
54796;DHT22;40693;43.884;20.340;2022-07-29T11:38:27;947.40;1254.40
54796;DHT22;40693;43.884;20.340;2022-07-29T11:46:12;947.70;1254.40
54796;DHT22;40693;43.884;20.340;2022-07-29T11:48:42;947.80;1228.80
54796;DHT22;40693;43.884;20.340;2022-07-29T11:51:11;947.90;1203.20
54796;DHT22;40693;43.884;20.340;2022-07-29T11:53:39;948.00;1203.20
54796;DHT22;40693;43.884;20.340;2022-07-29T11:56:08;947.90;1177.60
54796;DHT22;40693;43.884;20.340;2022-07-29T11:58:34;947.90;1177.60
54796;DHT22;40693;43.884;20.340;2022-07-29T12:01:01;947.60;1203.20
54796;DHT22;40693;43.884;20.340;2022-07-29T12:03:28;948.00;1228.80
54796;DHT22;40693;43.884;20.340;2022-07-29T12:05:54;948.10;1203.20
54796;DHT22;40693;43.884;20.340;2022-07-29T12:08:21;972.80;1203.20
54796;DHT22;40693;43.884;20.340;2022-07-29T12:10:49;972.80;1228.80
54796;DHT22;40693;43.884;20.340;2022-07-29T12:13:18;972.80;1203.20
54796;DHT22;40693;43.884;20.340;2022-07-29T12:15:53;972.80;1203.20
54796;DHT22;40693;43.884;20.340;2022-07-29T12:18:19;972.90;1228.80
54796;DHT22;40693;43.884;20.340;2022-07-29T12:20:47;973.10;1228.80
54796;DHT22;40693;43.884;20.340;2022-07-29T12:23:14;973.20;1203.20
54796;DHT22;40693;43.884;20.340;2022-07-29T12:25:41;973.30;1228.80
54796;DHT22;40693;43.884;20.340;2022-07-29T12:28:11;973.30;1203.20
54796;DHT22;40693;43.884;20.340;2022-07-29T12:30:45;973.40;1228.80
54796;DHT22;40693;43.884;20.340;2022-07-29T12:35:47;973.50;1177.60
54796;DHT22;40693;43.884;20.340;2022-07-29T12:38:13;973.60;1152.00
54796;DHT22;40693;43.884;20.340;2022-07-29T12:40:39;973.60;1152.00
54796;DHT22;40693;43.884;20.340;2022-07-29T12:43:10;973.70;1177.60
54796;DHT22;40693;43.884;20.340;2022-07-29T12:45:43;973.70;1152.00
54796;DHT22;40693;43.884;20.340;2022-07-29T12:48:09;998.40;1177.60
54796;DHT22;40693;43.884;20.340;2022-07-29T12:50:36;998.50;1203.20
54796;DHT22;40693;43.884;20.340;2022-07-29T12:53:12;998.60;1203.20
54796;DHT22;40693;43.884;20.340;2022-07-29T12:55:44;998.60;1203.20
54796;DHT22;40693;43.884;20.340;2022-07-29T12:58:25;998.70;1203.20
54796;DHT22;40693;43.884;20.340;2022-07-29T13:03:28;998.70;1152.00
54796;DHT22;40693;43.884;20.340;2022-07-29T13:05:54;998.80;1152.00
54796;DHT22;40693;43.884;20.340;2022-07-29T13:08:20;998.80;1152.00
54796;DHT22;40693;43.884;20.340;2022-07-29T13:10:46;998.60;1126.40
54796;DHT22;40693;43.884;20.340;2022-07-29T13:13:15;998.50;1152.00
54796;DHT22;40693;43.884;20.340;2022-07-29T13:15:42;998.40;1126.40
54796;DHT22;40693;43.884;20.340;2022-07-29T13:20:55;973.70;1126.40
54796;DHT22;40693;43.884;20.340;2022-07-29T13:23:21;973.60;1126.40
54796;DHT22;40693;43.884;20.340;2022-07-29T13:25:47;973.60;1152.00
54796;DHT22;40693;43.884;20.340;2022-07-29T13:28:13;973.40;1152.00
54796;DHT22;40693;43.884;20.340;2022-07-29T13:30:39;973.10;1152.00
54796;DHT22;40693;43.884;20.340;2022-07-29T13:33:06;972.90;1152.00
54796;DHT22;40693;43.884;20.340;2022-07-29T13:35:32;948.10;1126.40
54796;DHT22;40693;43.884;20.340;2022-07-29T13:37:57;972.80;1152.00
54796;DHT22;40693;43.884;20.340;2022-07-29T13:40:23;972.90;1152.00
54796;DHT22;40693;43.884;20.340;2022-07-29T13:42:49;973.00;1152.00
54796;DHT22;40693;43.884;20.340;2022-07-29T13:45:15;973.20;1152.00
54796;DHT22;40693;43.884;20.340;2022-07-29T13:47:41;973.30;1177.60
54796;DHT22;40693;43.884;20.340;2022-07-29T13:50:08;973.40;1152.00
54796;DHT22;40693;43.884;20.340;2022-07-29T13:52:36;973.30;1152.00
54796;DHT22;40693;43.884;20.340;2022-07-29T13:55:03;973.30;1126.40
54796;DHT22;40693;43.884;20.340;2022-07-29T13:57:29;973.40;1152.00
54796;DHT22;40693;43.884;20.340;2022-07-29T13:59:56;973.40;1152.00
54796;DHT22;40693;43.884;20.340;2022-07-29T14:02:22;973.60;1177.60
54796;DHT22;40693;43.884;20.340;2022-07-29T14:04:47;973.70;1177.60
54796;DHT22;40693;43.884;20.340;2022-07-29T14:07:13;973.70;1177.60
54796;DHT22;40693;43.884;20.340;2022-07-29T14:09:39;998.40;1152.00
54796;DHT22;40693;43.884;20.340;2022-07-29T14:12:05;998.50;1152.00
54796;DHT22;40693;43.884;20.340;2022-07-29T14:14:31;998.50;1152.00
54796;DHT22;40693;43.884;20.340;2022-07-29T14:16:58;998.60;1152.00
54796;DHT22;40693;43.884;20.340;2022-07-29T14:19:24;998.70;1152.00
54796;DHT22;40693;43.884;20.340;2022-07-29T14:21:50;998.80;1126.40
54796;DHT22;40693;43.884;20.340;2022-07-29T14:24:15;998.80;1126.40
54796;DHT22;40693;43.884;20.340;2022-07-29T14:26:41;998.80;1126.40
54796;DHT22;40693;43.884;20.340;2022-07-29T14:29:07;998.80;1126.40
54796;DHT22;40693;43.884;20.340;2022-07-29T14:31:32;999.00;1152.00
54796;DHT22;40693;43.884;20.340;2022-07-29T14:33:58;999.00;1100.80
54796;DHT22;40693;43.884;20.340;2022-07-29T14:36:24;999.10;1126.40
54796;DHT22;40693;43.884;20.340;2022-07-29T14:38:50;999.10;1126.40
54796;DHT22;40693;43.884;20.340;2022-07-29T14:41:15;999.10;1126.40
54796;DHT22;40693;43.884;20.340;2022-07-29T14:43:41;999.10;1100.80
54796;DHT22;40693;43.884;20.340;2022-07-29T14:46:07;999.10;1100.80
54796;DHT22;40693;43.884;20.340;2022-07-29T14:48:33;999.00;1100.80
54796;DHT22;40693;43.884;20.340;2022-07-29T14:50:59;999.00;1100.80
54796;DHT22;40693;43.884;20.340;2022-07-29T14:53:24;999.00;1126.40
54796;DHT22;40693;43.884;20.340;2022-07-29T14:55:50;999.10;1126.40
54796;DHT22;40693;43.884;20.340;2022-07-29T14:58:16;999.10;1126.40
54796;DHT22;40693;43.884;20.340;2022-07-29T15:00:42;999.10;1126.40
54796;DHT22;40693;43.884;20.340;2022-07-29T15:03:08;999.10;1126.40
54796;DHT22;40693;43.884;20.340;2022-07-29T15:05:36;999.20;1100.80
54796;DHT22;40693;43.884;20.340;2022-07-29T15:08:02;999.10;1126.40
54796;DHT22;40693;43.884;20.340;2022-07-29T15:10:28;999.20;1126.40
54796;DHT22;40693;43.884;20.340;2022-07-29T15:12:55;999.20;1126.40
54796;DHT22;40693;43.884;20.340;2022-07-29T15:15:21;999.20;1100.80
54796;DHT22;40693;43.884;20.340;2022-07-29T15:17:47;999.30;1100.80
54796;DHT22;40693;43.884;20.340;2022-07-29T15:20:13;999.30;1100.80
54796;DHT22;40693;43.884;20.340;2022-07-29T15:22:39;999.30;1075.20
54796;DHT22;40693;43.884;20.340;2022-07-29T15:25:06;999.30;1075.20
54796;DHT22;40693;43.884;20.340;2022-07-29T15:27:32;1024.00;1100.80
54796;DHT22;40693;43.884;20.340;2022-07-29T15:29:58;1024.00;1100.80
54796;DHT22;40693;43.884;20.340;2022-07-29T15:32:24;1024.00;1075.20
54796;DHT22;40693;43.884;20.340;2022-07-29T15:34:49;1024.00;1075.20